Stampers Creek, Indiana
Current Conditions -  °F | °C
As of 8:15 PM on Monday 26 Jan 2015 (Local Time) from KHNB Reporting Station
Scattered Clouds Scattered Clouds  
Wind Chill: 28°   Ceiling: Unl
Heat Index: 28°   Visibility: 4mi
Dew Point: 25°   Wind: 3mph
Humidity: 86%   Direction: 180°S
Pressure: 29.97"   Gusts: NA
Location:  38.5454°N, 86.4243°W
Report Text: KHNB 270115Z AUTO 18003KT 4SM SCT042 M02/M04 A2997 RMK AO1
Loading
Personal Weather Stations






























Interactive Weather Map New forecast layout! Learn more

10-Day Weather Forecast

Advertisements
Track Severe Weather on mobile